ADT,Max TemperatureF,Mean TemperatureF,Min TemperatureF,Max Dew PointF,MeanDew PointF,Min DewpointF,Max Humidity, Mean Humidity, Min Humidity, Max Sea Level PressureIn, Mean Sea Level PressureIn, Min Sea Level PressureIn, Max VisibilityMiles, Mean VisibilityMiles, Min VisibilityMiles, Max Wind SpeedMPH, Mean Wind SpeedMPH, Max Gust SpeedMPH,PrecipitationIn, CloudCover, Events, WindDirDegrees
2013-3-1,30,28,26,30,27,21,100,93,65,29.72,29.53,29.41,15,6,2,26,16,36,0.03,8,Rain-Snow,17
2013-3-2,35,32,29,34,31,28,100,98,85,29.47,29.40,29.36,5,2,0,14,10,21,0.08,8,Fog-Rain-Snow,357
2013-3-3,36,33,30,36,31,19,100,94,64,29.49,29.45,29.41,12,4,0,12,8,,0.08,8,Fog-Snow,291
2013-3-4,36,32,29,34,31,25,100,92,80,29.70,29.50,29.40,15,8,0,14,7,21,0.24,8,Fog-Rain-Snow,109
2013-3-5,36,33,30,35,32,28,100,96,79,30.17,29.91,29.71,15,11,0,18,12,24,0.04,8,Fog-Rain-Snow,38
2013-3-6,34,32,30,29,26,21,93,79,59,30.43,30.34,30.19,15,15,15,21,15,25,0.00,7,Snow,48
2013-3-7,35,32,26,27,24,21,93,75,60,30.42,30.36,30.28,15,15,15,20,12,23,0.00,7,,58
2013-3-8,34,29,24,28,25,23,93,84,68,30.28,30.25,30.23,15,15,15,23,16,32,0.00,6,,40
2013-3-9,32,29,26,28,26,21,100,85,70,30.40,30.33,30.27,15,15,15,17,14,22,0.00,8,,37
2013-3-10,36,30,24,27,25,23,93,79,55,30.45,30.41,30.33,15,15,15,10,6,,0.00,6,,85
2013-3-11,41,32,24,30,28,23,93,85,61,30.34,30.28,30.22,15,15,15,17,11,,0.00,6,,180
2013-3-12,42,36,30,37,34,28,93,89,75,30.29,30.25,30.20,15,15,15,23,16,24,0.00,7,,178
2013-3-13,51,44,37,46,43,37,100,90,70,30.19,29.92,29.64,15,13,10,25,19,36,0.71,8,Rain,146
2013-3-14,46,40,32,47,36,23,100,86,46,29.60,29.52,29.46,15,10,1,22,15,32,0.28,6,Rain,224
2013-3-15,32,29,26,28,25,23,93,87,71,29.60,29.56,29.52,15,9,2,13,8,,0.12,7,Snow,343
2013-3-16,27,21,12,25,17,9,93,75,42,29.75,29.60,29.52,15,10,2,16,7,23,0.08,5,Snow,311
2013-3-17,29,19,9,19,12,3,93,70,28,29.95,29.82,29.76,15,11,0,23,8,33,0.03,4,Snow,282
2013-3-18,21,14,7,5,-1,-4,62,50,29,30.25,30.12,29.97,15,15,15,24,17,32,0.00,2,Snow,293
2013-3-19,23,20,17,14,11,5,86,67,46,30.31,30.24,30.04,15,14,2,14,10,22,0.00,6,Snow,13
2013-3-20,35,26,17,34,23,14,100,88,68,29.99,29.52,29.23,15,8,0,30,17,40,0.08,7,Snow,105
2013-3-21,39,31,23,27,23,18,93,70,37,29.84,29.75,29.60,15,15,15,18,14,28,0.12,5,Snow,166
2013-3-22,33,30,27,28,26,23,100,85,65,29.60,29.35,29.25,15,7,0,29,16,44,0.31,7,Snow,311
2013-3-23,34,29,24,28,24,19,100,82,62,29.41,29.37,29.34,15,14,8,21,10,28,0.02,5,Snow,200
2013-3-24,34,29,23,28,26,21,100,88,55,29.69,29.55,29.40,15,10,2,14,5,,0.04,6,Snow,359
2013-3-25,33,28,23,31,28,23,100,92,81,29.67,29.65,29.63,15,10,2,18,10,23,0.01,8,Snow,338
2013-3-26,33,28,24,32,30,25,100,97,87,29.62,29.44,29.34,15,5,0,20,12,36,0.20,8,Fog-Rain-Snow,358
2013-3-27,34,32,30,32,31,30,100,96,87,29.76,29.61,29.45,15,7,0,24,14,30,0.00,7,Fog-Rain-Snow,16
2013-3-28,37,32,28,30,28,27,93,79,70,29.86,29.81,29.76,15,15,15,14,10,18,0.00,5,Snow,355
2013-3-29,33,28,24,25,24,21,93,78,66,29.92,29.87,29.83,15,15,15,15,8,23,0.00,1,,328
2013-3-30,34,25,16,23,19,14,93,70,47,30.04,29.96,29.91,15,15,15,13,7,20,0.00,1,,309
2013-3-31,43,28,14,19,16,12,86,55,18,30.13,30.09,30.03,15,15,15,10,5,,0.00,1,,191